Saint-Jean-Port-Joli, Canada
Current Conditions -  °F | °C
As of 4:00 PM on Monday 24 Nov 2014 (Local Time) from CYQB Reporting Station
Broken Clouds Broken Clouds  
Wind Chill: 42°   Ceiling: 6000
Heat Index: 45°   Visibility: 20mi
Dew Point: 45°   Wind: 5mph
Humidity: 100%   Direction: 20°NNE
Pressure: 29.33"   Gusts: NA
Location:  47.2°N, 70.27°W
Report Text: CYQB 242100Z 02004KT 20SM FEW008 SCT042 BKN060 07/07 A2933 RMK SF1SC4SC2 SF TR SLP936
Loading
Personal Weather Stations






























Interactive Weather Map New forecast layout! Learn more

10-Day Weather Forecast

Advertisements
Track Severe Weather on mobile